Time;durP1;ratioP1;P1;durP2;ratioP2;P2;SDS_P1;SDS_P2;PMS_P1;PMS_P2;Temp;Humidity;BMP_temperature;BMP_pressure;BME280_temperature;BME280_humidity;BME280_pressure;Samples;Min_cycle;Max_cycle;Signal;HPM_P1;HPM_P2
2022/06/23 00:01:53;;;;;;;4.97;4.15;;;14.90;99.90;;;;;;5028195;28;20056;-62
2022/06/23 00:04:23;;;;;;;5.03;4.32;;;14.90;99.90;;;;;;5036669;22;20074;-54
2022/06/23 00:06:56;;;;;;;6.47;4.72;;;14.90;99.90;;;;;;5035334;28;20132;-51
2022/06/23 00:09:46;;;;;;;6.25;3.95;;;14.90;99.90;;;;;;5025723;28;20040;-54
2022/06/23 00:12:33;;;;;;;5.85;4.10;;;14.90;99.90;;;;;;5028484;28;20053;-52
2022/06/23 00:14:59;;;;;;;5.85;5.05;;;14.80;99.90;;;;;;5028951;28;20067;-52
2022/06/23 00:17:31;;;;;;;7.45;5.05;;;14.80;99.90;;;;;;5029680;28;20040;-53
2022/06/23 00:20:02;;;;;;;6.32;4.78;;;14.80;99.90;;;;;;5024782;28;20041;-53
2022/06/23 00:22:31;;;;;;;6.63;4.60;;;14.80;99.90;;;;;;5026777;28;20045;-51
2022/06/23 00:25:02;;;;;;;7.88;6.00;;;14.80;99.90;;;;;;5022468;28;20108;-51
2022/06/23 00:27:38;;;;;;;6.60;5.43;;;14.80;99.90;;;;;;5030327;28;20025;-55
2022/06/23 00:30:27;;;;;;;7.55;5.80;;;14.80;99.90;;;;;;5032159;28;20032;-56
2022/06/23 00:32:53;;;;;;;10.55;6.20;;;14.80;99.90;;;;;;5035493;28;20052;-54
2022/06/23 00:35:19;;;;;;;10.18;6.28;;;14.80;99.90;;;;;;5013054;28;20033;-54
2022/06/23 00:37:51;;;;;;;7.38;6.15;;;14.80;99.90;;;;;;5036217;28;20495;-51
2022/06/23 00:40:22;;;;;;;8.77;6.47;;;14.70;99.90;;;;;;5027097;28;20052;-51
2022/06/23 00:42:58;;;;;;;9.00;6.55;;;14.70;99.90;;;;;;5016722;28;20049;-50
2022/06/23 00:45:46;;;;;;;7.38;5.90;;;14.70;99.90;;;;;;5025665;28;20090;-50
2022/06/23 00:48:20;;;;;;;8.02;6.43;;;14.60;99.90;;;;;;5030820;28;20051;-52
2022/06/23 00:50:48;;;;;;;;;;;14.60;99.90;;;;;;5026659;28;20049;-54
2022/06/23 00:53:30;;;;;;;10.82;7.43;;;14.60;99.90;;;;;;5042533;28;19917;-53
2022/06/23 00:56:13;;;;;;;9.20;7.28;;;14.50;99.90;;;;;;5026235;28;20045;-55
2022/06/23 00:58:58;;;;;;;7.50;6.43;;;14.50;99.90;;;;;;5029412;28;20492;-52
2022/06/23 01:01:43;;;;;;;7.68;6.30;;;14.50;99.90;;;;;;5034180;28;20037;-52
2022/06/23 01:04:44;;;;;;;9.48;7.47;;;14.50;99.90;;;;;;5016273;28;20488;-54
2022/06/23 01:07:21;;;;;;;7.82;7.00;;;14.40;99.90;;;;;;4938045;28;20080;-51
2022/06/23 01:09:55;;;;;;;9.20;7.60;;;14.40;99.90;;;;;;5015170;28;20484;-50
2022/06/23 01:12:50;;;;;;;9.05;7.38;;;14.40;99.90;;;;;;5002062;28;20044;-51
2022/06/23 01:15:43;;;;;;;8.52;7.07;;;14.40;99.90;;;;;;5026690;28;20568;-51
2022/06/23 01:18:21;;;;;;;10.65;8.75;;;14.30;99.90;;;;;;5033065;28;20052;-56
2022/06/23 01:20:53;;;;;;;11.55;7.95;;;14.30;99.90;;;;;;5013316;28;20067;-56
2022/06/23 01:23:57;;;;;;;10.60;8.38;;;14.30;99.90;;;;;;5004665;28;21797;-55
2022/06/23 01:26:35;;;;;;;13.60;9.25;;;14.30;99.90;;;;;;5031377;28;20049;-51
2022/06/23 01:29:13;;;;;;;10.43;8.45;;;14.20;99.90;;;;;;5022767;28;20793;-52
2022/06/23 01:31:46;;;;;;;8.77;6.85;;;14.20;99.90;;;;;;5035907;28;20041;-49
2022/06/23 01:34:26;;;;;;;9.40;8.02;;;14.10;99.90;;;;;;5024632;28;20077;-54
2022/06/23 01:37:25;;;;;;;11.60;8.77;;;14.10;99.90;;;;;;5028626;28;20033;-56
2022/06/23 01:40:11;;;;;;;11.20;8.77;;;14.10;99.90;;;;;;5027969;28;20402;-54
2022/06/23 01:42:40;;;;;;;11.00;9.65;;;14.00;99.90;;;;;;5025614;28;20036;-52
2022/06/23 01:45:34;;;;;;;13.40;9.88;;;14.00;99.90;;;;;;5031132;28;20171;-52
2022/06/23 01:48:51;;;;;;;9.05;8.07;;;14.00;99.90;;;;;;5018285;28;20541;-49
2022/06/23 01:51:28;;;;;;;13.07;10.75;;;13.90;99.90;;;;;;5032484;28;20042;-50
2022/06/23 01:54:12;;;;;;;9.38;7.28;;;13.90;99.90;;;;;;5040737;28;20053;-52
2022/06/23 01:57:03;;;;;;;11.85;9.10;;;13.90;99.90;;;;;;5031795;28;20387;-49
2022/06/23 01:59:42;;;;;;;16.05;10.18;;;13.90;99.90;;;;;;5011421;28;20048;-52
2022/06/23 02:02:10;;;;;;;11.63;8.95;;;13.90;99.90;;;;;;5033043;28;20120;-53
2022/06/23 02:04:55;;;;;;;10.30;8.73;;;13.90;99.90;;;;;;5020849;28;21268;-50
2022/06/23 02:07:43;;;;;;;11.32;10.07;;;13.90;99.90;;;;;;5036689;28;20949;-55
2022/06/23 02:10:27;;;;;;;15.18;9.45;;;13.80;99.90;;;;;;5028669;28;20064;-51
2022/06/23 02:13:10;;;;;;;16.20;10.15;;;13.90;99.90;;;;;;5029334;28;20071;-56
2022/06/23 02:15:54;;;;;;;12.27;9.57;;;13.90;99.90;;;;;;5035736;28;20347;-52
2022/06/23 02:18:44;;;;;;;13.45;10.50;;;13.90;99.90;;;;;;5030445;28;20139;-52
2022/06/23 02:21:48;;;;;;;15.63;11.43;;;13.80;99.90;;;;;;5036419;28;20041;-51
2022/06/23 02:24:26;;;;;;;13.73;11.05;;;13.80;99.90;;;;;;5031190;28;20479;-56
2022/06/23 02:27:02;;;;;;;15.25;11.68;;;13.80;99.90;;;;;;5018637;28;20714;-53
2022/06/23 02:29:40;;;;;;;16.33;10.25;;;13.80;99.90;;;;;;5030499;28;20037;-49
2022/06/23 02:32:17;;;;;;;14.60;10.75;;;13.70;99.90;;;;;;5031647;28;20502;-48
2022/06/23 02:35:08;;;;;;;14.25;10.35;;;13.70;99.90;;;;;;5031659;28;20045;-50
2022/06/23 02:37:53;;;;;;;15.63;11.15;;;13.70;99.90;;;;;;5020437;28;20472;-51
2022/06/23 02:40:28;;;;;;;8.98;7.55;;;13.60;99.90;;;;;;5034073;28;20118;-48
2022/06/23 02:43:17;;;;;;;16.05;10.25;;;13.60;99.90;;;;;;5035127;28;20060;-52
2022/06/23 02:45:48;;;;;;;12.30;9.27;;;13.60;99.90;;;;;;5030563;28;20037;-52
2022/06/23 02:48:38;;;;;;;15.55;11.27;;;13.60;99.90;;;;;;5013211;28;20064;-51
2022/06/23 02:51:28;;;;;;;15.43;10.70;;;13.60;99.90;;;;;;5027353;28;20041;-49
2022/06/23 02:54:23;;;;;;;12.50;9.75;;;13.60;99.90;;;;;;5006341;28;20049;-53
2022/06/23 02:57:11;;;;;;;11.93;9.52;;;13.60;99.90;;;;;;5032210;28;20048;-53
2022/06/23 03:00:05;;;;;;;16.13;10.90;;;13.50;99.90;;;;;;5026356;28;20122;-54
2022/06/23 03:02:34;;;;;;;16.15;11.38;;;13.60;99.90;;;;;;5026999;28;20028;-49
2022/06/23 03:05:07;;;;;;;17.75;12.18;;;13.50;99.90;;;;;;5008863;28;20072;-53
2022/06/23 03:08:01;;;;;;;17.38;12.23;;;13.50;99.90;;;;;;5020082;28;20040;-57
2022/06/23 03:10:48;;;;;;;14.95;10.70;;;13.50;99.90;;;;;;5021621;28;20052;-52
2022/06/23 03:13:22;;;;;;;19.08;13.68;;;13.50;99.90;;;;;;5035150;28;20084;-55
2022/06/23 03:16:14;;;;;;;11.73;9.15;;;13.50;99.90;;;;;;5027447;28;20279;-52
2022/06/23 03:18:59;;;;;;;11.35;8.77;;;13.50;99.90;;;;;;5021919;28;20164;-52
2022/06/23 03:21:30;;;;;;;16.55;12.82;;;13.50;99.90;;;;;;5027494;28;20120;-54
2022/06/23 03:24:08;;;;;;;13.50;10.02;;;13.40;99.90;;;;;;5030183;28;20044;-51
2022/06/23 03:26:49;;;;;;;15.63;11.13;;;13.40;99.90;;;;;;5028928;28;20064;-54
2022/06/23 03:29:22;;;;;;;17.88;11.85;;;13.40;99.90;;;;;;5025513;28;20036;-51
2022/06/23 03:32:19;;;;;;;16.45;11.85;;;13.40;99.90;;;;;;5031511;28;20279;-50
2022/06/23 03:35:13;;;;;;;13.90;10.32;;;13.40;99.90;;;;;;5026956;28;20179;-58
2022/06/23 03:37:45;;;;;;;15.57;11.68;;;13.50;99.90;;;;;;5031837;28;20040;-51
2022/06/23 03:43:28;;;;;;;9.30;8.02;;;13.40;99.90;;;;;;5025232;28;20049;-52
2022/06/23 03:45:59;;;;;;;11.52;8.93;;;13.50;99.90;;;;;;5014311;28;20067;-52
2022/06/23 03:48:43;;;;;;;14.23;10.02;;;13.50;99.90;;;;;;5028939;28;20037;-57
2022/06/23 03:51:19;;;;;;;;;;;13.60;99.90;;;;;;5050822;28;20071;-51
2022/06/23 03:54:01;;;;;;;13.13;10.15;;;13.50;99.90;;;;;;5028644;28;19917;-52
2022/06/23 03:56:35;;;;;;;16.00;12.35;;;13.50;99.90;;;;;;5032060;28;20032;-50
2022/06/23 03:59:23;;;;;;;14.80;11.57;;;13.50;99.90;;;;;;5023877;28;20131;-52
2022/06/23 04:02:17;;;;;;;15.57;11.27;;;13.50;99.90;;;;;;5033068;28;20045;-52
2022/06/23 04:05:07;;;;;;;17.38;12.48;;;13.50;99.90;;;;;;5023110;28;20049;-49
2022/06/23 04:07:44;;;;;;;22.20;12.77;;;13.50;99.90;;;;;;5024635;28;20053;-52
2022/06/23 04:10:14;;;;;;;15.60;10.70;;;13.50;99.90;;;;;;5022333;28;20041;-52
2022/06/23 04:12:45;;;;;;;15.75;11.85;;;13.50;99.90;;;;;;5025346;28;20083;-55
2022/06/23 04:15:21;;;;;;;18.88;12.95;;;13.50;99.90;;;;;;5025964;28;20049;-53
2022/06/23 04:18:12;;;;;;;18.48;12.70;;;13.50;99.90;;;;;;5029157;28;20081;-53
2022/06/23 04:20:41;;;;;;;17.27;11.88;;;13.50;99.90;;;;;;5015151;28;20045;-55
2022/06/23 04:23:21;;;;;;;16.98;12.02;;;13.50;99.90;;;;;;5029160;28;20056;-50
2022/06/23 04:25:51;;;;;;;18.75;12.77;;;13.50;99.90;;;;;;5031445;28;20095;-55
2022/06/23 04:28:25;;;;;;;20.17;12.95;;;13.40;99.90;;;;;;5028703;28;20095;-57
2022/06/23 04:30:55;;;;;;;14.57;11.35;;;13.50;99.90;;;;;;5012905;28;20045;-53
2022/06/23 04:33:23;;;;;;;15.60;11.50;;;13.50;99.90;;;;;;5027048;28;20048;-55
2022/06/23 04:35:55;;;;;;;19.10;12.30;;;13.60;99.90;;;;;;5028917;28;20044;-55
2022/06/23 04:38:26;;;;;;;16.33;13.25;;;13.60;99.90;;;;;;5021767;28;21747;-54
2022/06/23 04:41:21;;;;;;;17.10;13.48;;;13.70;99.90;;;;;;5025187;28;20051;-53
2022/06/23 04:43:50;;;;;;;20.35;13.90;;;13.70;99.90;;;;;;5027416;28;20134;-52
2022/06/23 04:46:29;;;;;;;14.93;11.68;;;13.80;99.90;;;;;;5027012;28;20072;-52
2022/06/23 04:49:18;;;;;;;17.15;11.73;;;13.80;99.90;;;;;;5034673;28;20055;-50
2022/06/23 04:51:55;;;;;;;15.57;13.00;;;13.90;99.90;;;;;;5026915;28;20095;-56
2022/06/23 04:54:43;;;;;;;13.02;10.07;;;13.90;99.90;;;;;;5020431;28;20439;-54
2022/06/23 04:57:15;;;;;;;15.70;11.68;;;14.00;99.90;;;;;;5029779;28;20056;-56
2022/06/23 04:59:51;;;;;;;16.52;11.45;;;14.10;99.90;;;;;;5029123;28;20051;-53
2022/06/23 05:02:47;;;;;;;15.15;11.27;;;14.10;99.90;;;;;;5025662;28;20037;-51
2022/06/23 05:05:21;;;;;;;14.85;11.60;;;14.20;99.90;;;;;;5029825;28;20056;-54
2022/06/23 05:08:04;;;;;;;16.27;12.23;;;14.20;99.90;;;;;;5011545;28;20127;-50
2022/06/23 05:10:37;;;;;;;14.60;10.13;;;14.30;99.90;;;;;;5029523;28;20386;-49
2022/06/23 05:13:17;;;;;;;14.25;11.15;;;14.40;99.90;;;;;;5022285;28;20087;-55
2022/06/23 05:15:48;;;;;;;15.27;11.40;;;14.40;99.90;;;;;;5018055;28;20056;-55
2022/06/23 05:18:16;;;;;;;15.93;13.18;;;14.50;99.90;;;;;;5021159;28;20057;-52
2022/06/23 05:21:04;;;;;;;15.30;11.48;;;14.60;99.90;;;;;;5006805;28;20277;-52
2022/06/23 05:23:41;;;;;;;13.52;10.90;;;14.70;99.90;;;;;;5032206;28;20083;-56
2022/06/23 05:26:38;;;;;;;16.33;11.43;;;14.70;99.90;;;;;;5009755;28;20041;-55
2022/06/23 05:29:21;;;;;;;12.77;11.13;;;14.80;99.90;;;;;;5012921;28;20528;-54
2022/06/23 05:31:50;;;;;;;14.70;11.38;;;15.00;99.90;;;;;;5019029;28;20037;-53
2022/06/23 05:34:24;;;;;;;14.27;10.50;;;15.10;99.90;;;;;;5020389;28;20344;-51
2022/06/23 05:37:01;;;;;;;12.45;10.55;;;15.20;99.90;;;;;;5026125;28;20045;-56
2022/06/23 05:39:39;;;;;;;12.27;10.57;;;15.30;99.90;;;;;;5026254;28;20526;-52
2022/06/23 05:42:28;;;;;;;13.50;10.98;;;15.40;99.90;;;;;;5020846;28;20052;-52
2022/06/23 05:45:02;;;;;;;13.48;9.77;;;15.60;99.90;;;;;;5025179;28;21269;-55
2022/06/23 05:47:31;;;;;;;13.05;11.30;;;15.70;99.90;;;;;;5020489;28;20049;-54
2022/06/23 05:50:07;;;;;;;13.65;10.68;;;15.80;99.90;;;;;;4999786;28;20055;-52
2022/06/23 05:53:02;;;;;;;13.63;10.23;;;15.90;99.90;;;;;;5023632;28;20039;-50
2022/06/23 05:55:33;;;;;;;11.80;10.50;;;16.00;99.90;;;;;;5026305;28;20057;-52
2022/06/23 05:58:20;;;;;;;16.38;10.85;;;16.10;99.90;;;;;;5023707;28;20060;-57
2022/06/23 06:00:57;;;;;;;12.32;11.05;;;16.20;99.90;;;;;;5028615;28;20045;-50
2022/06/23 06:03:27;;;;;;;12.10;9.55;;;16.30;99.90;;;;;;5021751;28;20888;-54
2022/06/23 06:06:00;;;;;;;13.05;9.98;;;16.40;99.90;;;;;;5029078;22;20041;-59
2022/06/23 06:08:31;;;;;;;14.10;10.65;;;16.60;99.90;;;;;;4992456;28;20322;-58
2022/06/23 06:11:00;;;;;;;13.77;10.48;;;16.70;99.90;;;;;;4974369;28;20050;-58
2022/06/23 06:13:37;;;;;;;12.50;10.38;;;16.80;99.90;;;;;;4966885;28;20409;-55
2022/06/23 06:16:04;;;;;;;12.05;10.05;;;17.00;99.90;;;;;;4971809;28;20617;-59
2022/06/23 06:18:32;;;;;;;12.80;10.27;;;17.10;99.90;;;;;;4981073;28;20489;-56
2022/06/23 06:21:01;;;;;;;13.50;9.90;;;17.30;99.90;;;;;;4983744;28;20043;-58
2022/06/23 06:24:03;;;;;;;12.50;9.32;;;17.30;99.90;;;;;;4981937;28;20547;-58
2022/06/23 06:26:51;;;;;;;10.65;9.20;;;17.50;99.90;;;;;;4980739;28;20101;-59
2022/06/23 06:29:20;;;;;;;11.73;9.70;;;17.70;99.90;;;;;;4984057;28;20042;-55
2022/06/23 06:31:52;;;;;;;11.48;9.35;;;17.80;99.90;;;;;;4982206;28;20065;-56
2022/06/23 06:34:43;;;;;;;12.63;10.40;;;17.90;99.90;;;;;;4963859;28;20042;-56
2022/06/23 06:37:12;;;;;;;11.65;9.60;;;18.00;99.90;;;;;;4978005;28;20038;-57
2022/06/23 06:39:42;;;;;;;9.88;8.65;;;18.10;99.90;;;;;;4976409;28;20136;-58
2022/06/23 06:42:14;;;;;;;13.40;8.77;;;18.20;99.90;;;;;;4986745;28;20053;-57
2022/06/23 06:44:44;;;;;;;10.98;9.00;;;18.40;99.90;;;;;;4983835;28;20058;-56
2022/06/23 06:47:27;;;;;;;14.13;9.27;;;18.50;99.90;;;;;;4977033;28;20528;-57
2022/06/23 06:49:57;;;;;;;18.95;9.65;;;18.60;99.90;;;;;;4980385;28;20489;-60
2022/06/23 06:52:23;;;;;;;11.88;8.93;;;18.70;99.90;;;;;;4975642;28;20109;-59
2022/06/23 06:54:56;;;;;;;11.05;9.20;;;18.90;99.90;;;;;;4979950;28;20077;-60
2022/06/23 06:57:46;;;;;;;10.18;9.18;;;18.90;99.90;;;;;;4967703;28;20054;-61
2022/06/23 07:00:19;;;;;;;10.52;8.50;;;19.10;99.90;;;;;;4983948;28;20088;-57
2022/06/23 07:02:50;;;;;;;11.05;8.77;;;19.20;99.90;;;;;;4977793;28;20057;-58
2022/06/23 07:05:33;;;;;;;10.52;8.05;;;19.30;99.90;;;;;;4962017;28;20050;-58
2022/06/23 07:08:10;;;;;;;9.48;7.90;;;19.40;99.90;;;;;;4971909;28;20050;-59
2022/06/23 07:10:47;;;;;;;10.82;8.88;;;19.50;99.90;;;;;;4982149;28;20034;-60
2022/06/23 07:13:30;;;;;;;10.45;8.85;;;19.60;99.90;;;;;;4977501;28;20521;-60
2022/06/23 07:16:06;;;;;;;13.02;8.82;;;19.60;99.90;;;;;;4978438;28;20074;-55
2022/06/23 07:18:46;;;;;;;14.40;9.52;;;19.70;99.90;;;;;;4986169;28;20038;-59
2022/06/23 07:21:30;;;;;;;9.40;7.47;;;19.90;99.90;;;;;;4976027;28;20298;-60
2022/06/23 07:24:25;;;;;;;9.52;7.85;;;19.90;99.90;;;;;;4964060;28;20051;-61
2022/06/23 07:27:03;;;;;;;12.48;8.70;;;20.10;99.90;;;;;;4981318;28;20042;-60
2022/06/23 07:30:04;;;;;;;11.52;8.68;;;20.20;99.90;;;;;;4985179;28;20076;-60
2022/06/23 07:32:36;;;;;;;9.82;8.10;;;20.30;99.90;;;;;;4988988;28;20141;-58
2022/06/23 07:35:30;;;;;;;10.73;7.68;;;20.40;99.90;;;;;;4991612;28;20046;-55
2022/06/23 07:38:06;;;;;;;13.80;8.52;;;20.50;99.90;;;;;;4988820;28;20114;-58
2022/06/23 07:40:42;;;;;;;12.88;7.97;;;20.60;99.90;;;;;;4983145;28;20134;-58
2022/06/23 07:43:38;;;;;;;9.15;7.07;;;20.80;99.90;;;;;;5006436;22;20048;-52
2022/06/23 07:46:04;;;;;;;9.45;8.45;;;20.90;99.90;;;;;;5055945;28;20025;-55
2022/06/23 07:48:35;;;;;;;10.63;8.93;;;21.00;99.90;;;;;;5037788;28;20426;-53
2022/06/23 07:51:05;;;;;;;9.75;7.47;;;20.90;99.90;;;;;;5036519;28;20045;-54
2022/06/23 07:53:47;;;;;;;11.10;9.38;;;21.10;99.90;;;;;;5037834;28;20554;-55
2022/06/23 07:56:20;;;;;;;12.70;10.05;;;21.20;99.90;;;;;;5041009;28;20509;-56
2022/06/23 07:58:48;;;;;;;11.73;9.00;;;21.30;99.90;;;;;;5041434;28;20045;-53
2022/06/23 08:01:21;;;;;;;10.15;7.32;;;21.40;99.90;;;;;;5035297;28;20552;-57
2022/06/23 08:03:53;;;;;;;10.20;9.20;;;21.50;99.90;;;;;;5033428;28;20040;-55
2022/06/23 08:06:21;;;;;;;12.02;8.07;;;21.60;99.90;;;;;;5039018;28;20260;-52
2022/06/23 08:08:51;;;;;;;13.35;9.02;;;21.80;99.90;;;;;;5037073;28;20048;-55
2022/06/23 08:14:32;;;;;;;9.77;8.05;;;22.00;99.90;;;;;;5041425;28;20045;-52
2022/06/23 08:16:59;;;;;;;10.15;8.02;;;22.10;99.90;;;;;;5035263;28;20423;-57
2022/06/23 08:19:42;;;;;;;9.05;7.57;;;22.30;99.90;;;;;;5046936;28;20053;-56
2022/06/23 08:22:21;;;;;;;10.85;7.60;;;22.40;99.90;;;;;;5043118;28;20049;-58
2022/06/23 08:24:51;;;;;;;10.25;7.47;;;22.50;99.90;;;;;;5039827;28;20045;-53
2022/06/23 08:27:21;;;;;;;9.45;7.25;;;22.60;99.90;;;;;;5046095;28;20084;-54
2022/06/23 08:30:02;;;;;;;10.00;8.15;;;22.60;99.90;;;;;;5044664;28;20124;-56
2022/06/23 08:32:29;;;;;;;9.05;7.88;;;22.80;99.90;;;;;;5026631;28;20126;-55
2022/06/23 08:35:08;;;;;;;9.98;7.13;;;22.80;99.90;;;;;;5043059;28;20092;-56
2022/06/23 08:37:54;;;;;;;7.88;6.72;;;22.90;99.90;;;;;;5023548;28;20099;-57
2022/06/23 08:40:38;;;;;;;9.35;7.32;;;23.00;99.90;;;;;;5019034;28;20083;-53
2022/06/23 08:43:30;;;;;;;13.50;7.40;;;23.10;99.90;;;;;;5038503;28;20569;-54
2022/06/23 08:46:10;;;;;;;10.07;6.65;;;23.30;99.90;;;;;;5039332;28;20038;-54
2022/06/23 08:48:44;;;;;;;12.57;8.30;;;23.40;99.90;;;;;;5057172;28;20654;-52
2022/06/23 08:51:28;;;;;;;12.43;8.00;;;23.50;99.90;;;;;;5039580;28;20033;-56
2022/06/23 08:54:17;;;;;;;10.57;7.38;;;23.70;99.90;;;;;;5034986;28;20091;-55
2022/06/23 08:56:50;;;;;;;9.32;7.45;;;23.80;99.90;;;;;;5019382;28;20365;-58
2022/06/23 08:59:34;;;;;;;10.57;7.20;;;23.90;99.90;;;;;;5036950;28;20041;-55
2022/06/23 09:02:37;;;;;;;8.13;6.95;;;23.90;99.90;;;;;;5038137;28;20052;-53
2022/06/23 09:05:24;;;;;;;9.90;6.55;;;24.00;99.90;;;;;;4994700;28;20463;-53
2022/06/23 09:08:17;;;;;;;8.15;7.35;;;24.20;99.90;;;;;;5024087;28;20116;-55
2022/06/23 09:10:52;;;;;;;8.63;6.70;;;24.20;99.90;;;;;;5002387;28;20049;-54
2022/06/23 09:13:39;;;;;;;7.55;5.95;;;24.40;99.90;;;;;;5034865;28;20440;-56
2022/06/23 09:16:14;;;;;;;8.50;5.85;;;24.50;99.70;;;;;;5039495;28;20045;-55
2022/06/23 09:18:49;;;;;;;8.50;5.18;;;24.60;99.70;;;;;;5035042;28;20040;-54
2022/06/23 09:21:30;;;;;;;6.63;5.05;;;24.80;99.40;;;;;;5036664;28;20179;-55
2022/06/23 09:24:21;;;;;;;9.10;5.60;;;24.80;99.30;;;;;;5031347;28;20041;-53
2022/06/23 09:26:59;;;;;;;11.07;6.35;;;24.80;98.70;;;;;;5038926;28;20454;-56
2022/06/23 09:29:39;;;;;;;7.68;4.82;;;24.90;98.60;;;;;;5045709;28;20033;-54
2022/06/23 09:32:32;;;;;;;10.50;5.60;;;25.10;99.20;;;;;;5040545;28;20087;-53
2022/06/23 09:35:01;;;;;;;11.05;5.47;;;25.20;98.60;;;;;;5040304;28;20044;-55
2022/06/23 09:37:55;;;;;;;11.60;6.38;;;25.30;98.20;;;;;;5030377;28;20042;-56
2022/06/23 09:40:29;;;;;;;8.63;6.30;;;25.50;98.30;;;;;;5023033;28;20053;-56
2022/06/23 09:43:09;;;;;;;8.85;5.82;;;25.50;97.90;;;;;;5024924;28;20056;-56
2022/06/23 09:45:52;;;;;;;5.70;3.95;;;25.60;97.40;;;;;;5046848;28;21221;-57
2022/06/23 09:48:52;;;;;;;7.07;3.80;;;25.70;96.80;;;;;;5019008;28;22793;-56
2022/06/23 09:51:36;;;;;;;4.70;3.53;;;25.90;96.80;;;;;;5026057;28;20072;-57
2022/06/23 09:54:16;;;;;;;7.70;3.65;;;26.00;94.70;;;;;;5027438;28;20388;-55
2022/06/23 09:56:41;;;;;;;8.13;3.63;;;26.20;95.00;;;;;;5028237;28;20041;-57
2022/06/23 09:59:23;;;;;;;5.25;3.90;;;26.30;95.20;;;;;;5029819;28;20495;-55
2022/06/23 10:02:09;;;;;;;6.10;3.67;;;26.40;94.50;;;;;;5024255;28;20045;-57
2022/06/23 10:04:54;;;;;;;5.20;3.15;;;26.40;93.70;;;;;;5020248;28;20084;-55
2022/06/23 10:07:23;;;;;;;4.40;3.42;;;26.50;94.50;;;;;;5044724;28;20047;-55
2022/06/23 10:10:11;;;;;;;5.50;4.10;;;26.70;93.80;;;;;;5019813;28;22907;-57
2022/06/23 10:13:04;;;;;;;9.45;3.58;;;26.70;92.00;;;;;;5029833;28;20879;-56
2022/06/23 10:15:38;;;;;;;8.85;3.20;;;26.70;91.80;;;;;;5036750;28;20464;-57
2022/06/23 10:18:23;;;;;;;3.67;3.30;;;26.70;92.40;;;;;;5041770;28;20567;-57
2022/06/23 10:21:12;;;;;;;5.22;2.78;;;26.80;92.40;;;;;;5037799;28;20041;-54
2022/06/23 10:24:11;;;;;;;5.60;3.35;;;27.00;91.30;;;;;;5033816;28;20048;-58
2022/06/23 10:27:16;;;;;;;6.72;3.25;;;27.00;90.50;;;;;;5016069;28;20138;-57
2022/06/23 10:29:45;;;;;;;6.45;3.47;;;27.10;90.80;;;;;;5042735;28;20040;-57
2022/06/23 10:32:30;;;;;;;5.90;2.90;;;27.30;90.40;;;;;;5041947;28;20546;-56
2022/06/23 10:35:27;;;;;;;3.88;2.97;;;27.20;87.00;;;;;;5043003;28;20465;-56
2022/06/23 10:38:02;;;;;;;4.45;2.88;;;27.30;86.10;;;;;;5039401;28;20087;-57
2022/06/23 10:40:30;;;;;;;4.00;2.75;;;27.40;86.10;;;;;;5042097;28;20033;-54
2022/06/23 10:43:27;;;;;;;4.38;2.72;;;27.50;86.10;;;;;;5040633;28;20037;-55
2022/06/23 10:45:55;;;;;;;5.57;2.47;;;27.70;85.50;;;;;;5040337;28;20037;-56
2022/06/23 10:48:34;;;;;;;4.82;2.80;;;27.70;84.00;;;;;;5043006;28;20132;-56
2022/06/23 10:51:28;;;;;;;4.70;2.55;;;27.60;79.80;;;;;;5041578;28;20051;-57
2022/06/23 10:54:16;;;;;;;5.90;2.85;;;27.70;79.10;;;;;;5041479;28;20049;-57
2022/06/23 10:56:50;;;;;;;3.85;2.53;;;27.80;81.20;;;;;;5041106;28;20049;-57
2022/06/23 10:59:19;;;;;;;3.58;2.58;;;27.90;82.00;;;;;;5041801;28;20064;-56
2022/06/23 11:02:03;;;;;;;4.15;2.40;;;28.00;79.80;;;;;;5042166;28;20043;-57
2022/06/23 11:04:44;;;;;;;5.10;3.10;;;27.90;79.10;;;;;;5041592;28;20446;-54
2022/06/23 11:07:27;;;;;;;4.85;2.58;;;27.90;74.00;;;;;;5042159;28;20041;-57
2022/06/23 11:10:02;;;;;;;;;;;27.90;78.40;;;;;;5042137;28;20037;-55
2022/06/23 11:12:53;;;;;;;6.25;3.05;;;28.00;75.60;;;;;;5045472;28;19916;-56
2022/06/23 11:15:44;;;;;;;4.28;2.85;;;28.00;78.50;;;;;;5040342;28;20107;-57
2022/06/23 11:18:30;;;;;;;4.07;2.72;;;28.30;82.20;;;;;;5036797;28;20712;-58
2022/06/23 11:21:28;;;;;;;9.43;3.38;;;28.50;80.00;;;;;;5040033;28;20041;-57
2022/06/23 11:24:24;;;;;;;4.70;3.25;;;28.70;78.40;;;;;;5051843;28;20156;-57
2022/06/23 11:27:16;;;;;;;6.30;2.70;;;28.50;76.30;;;;;;5038728;28;20095;-58
2022/06/23 11:29:55;;;;;;;6.75;3.47;;;28.60;78.70;;;;;;5040884;28;20385;-57
2022/06/23 11:32:46;;;;;;;5.63;2.90;;;28.70;78.00;;;;;;5038764;28;20833;-56
2022/06/23 11:35:48;;;;;;;5.63;2.80;;;28.90;79.20;;;;;;5036874;28;20045;-55
2022/06/23 11:38:54;;;;;;;6.22;2.80;;;29.10;79.70;;;;;;5021416;28;20147;-58
2022/06/23 11:42:05;;;;;;;5.93;2.88;;;29.30;77.40;;;;;;5038404;28;20065;-57
2022/06/23 11:44:49;;;;;;;3.33;2.75;;;29.20;75.10;;;;;;5035752;28;20075;-57
2022/06/23 11:47:20;;;;;;;4.15;2.50;;;29.20;75.00;;;;;;5034262;28;20136;-58
2022/06/23 11:50:10;;;;;;;6.78;2.80;;;29.20;74.60;;;;;;5042157;28;20083;-58
2022/06/23 11:52:47;;;;;;;7.20;3.28;;;29.20;72.50;;;;;;5038023;28;20078;-57
2022/06/23 11:55:23;;;;;;;5.18;2.75;;;29.20;72.30;;;;;;5039934;28;20049;-58
2022/06/23 11:58:07;;;;;;;5.65;3.25;;;29.20;75.20;;;;;;5037591;28;20048;-56
2022/06/23 12:01:13;;;;;;;5.68;3.38;;;29.40;75.00;;;;;;5037798;28;20049;-55
2022/06/23 12:04:02;;;;;;;6.10;2.85;;;29.50;75.50;;;;;;5041570;28;20053;-56
2022/06/23 12:06:49;;;;;;;7.07;3.70;;;29.80;74.90;;;;;;5045023;22;20038;-61
2022/06/23 12:09:49;;;;;;;5.05;2.90;;;29.80;74.40;;;;;;5006556;28;20077;-61
2022/06/23 12:12:16;;;;;;;6.38;3.17;;;29.90;71.60;;;;;;4966277;28;20038;-61
2022/06/23 12:14:42;;;;;;;4.18;2.90;;;29.90;71.70;;;;;;5014237;28;20037;-61
2022/06/23 12:17:21;;;;;;;4.50;3.20;;;29.80;71.00;;;;;;5012914;28;20034;-61
2022/06/23 12:19:53;;;;;;;4.57;2.60;;;29.80;72.20;;;;;;5015035;28;20543;-62
2022/06/23 12:22:51;;;;;;;5.10;2.78;;;29.90;74.70;;;;;;5015179;28;20083;-61
2022/06/23 12:26:05;;;;;;;5.85;3.25;;;30.10;74.90;;;;;;5018235;28;20081;-63
2022/06/23 12:28:31;;;;;;;5.93;2.70;;;30.30;75.30;;;;;;5018311;28;20049;-63
2022/06/23 12:30:59;;;;;;;7.30;2.80;;;30.40;74.60;;;;;;5019846;28;20522;-63
2022/06/23 12:33:36;;;;;;;7.15;3.30;;;30.50;71.50;;;;;;5021926;28;20041;-61
2022/06/23 12:36:12;;;;;;;6.07;3.08;;;30.30;70.30;;;;;;5020449;28;20609;-61
2022/06/23 12:38:49;;;;;;;4.55;3.00;;;30.30;72.30;;;;;;5014822;28;20463;-61
2022/06/23 12:41:20;;;;;;;4.93;3.00;;;30.50;70.80;;;;;;5003421;28;20606;-61
2022/06/23 12:43:51;;;;;;;10.43;3.50;;;30.60;70.40;;;;;;5034537;28;20088;-60
2022/06/23 12:47:09;;;;;;;5.30;3.03;;;30.80;71.60;;;;;;5012227;28;20037;-61
2022/06/23 12:49:48;;;;;;;6.55;3.13;;;30.80;70.50;;;;;;5014571;28;20128;-63
2022/06/23 12:52:41;;;;;;;5.00;2.90;;;30.80;71.20;;;;;;5011514;28;20049;-64
2022/06/23 12:55:31;;;;;;;5.38;2.70;;;31.00;68.00;;;;;;5014805;28;20042;-61
2022/06/23 12:58:09;;;;;;;3.65;2.70;;;30.70;67.50;;;;;;5019615;28;20344;-63
2022/06/23 13:00:38;;;;;;;3.00;2.70;;;30.70;67.40;;;;;;5024959;28;20498;-61
2022/06/23 13:03:22;;;;;;;4.63;3.33;;;30.70;70.00;;;;;;5027848;28;20419;-60
2022/06/23 13:05:56;;;;;;;4.20;2.70;;;30.90;67.40;;;;;;5018553;28;20038;-62
2022/06/23 13:08:29;;;;;;;3.75;2.85;;;31.10;70.00;;;;;;5006298;28;20464;-60
2022/06/23 13:11:11;;;;;;;6.68;2.88;;;31.40;66.40;;;;;;5008119;28;20072;-61
2022/06/23 13:13:56;;;;;;;4.15;2.10;;;31.40;65.50;;;;;;5003879;28;20533;-63
2022/06/23 13:16:24;;;;;;;3.38;2.42;;;31.40;66.00;;;;;;5031710;28;20055;-60
2022/06/23 13:19:05;;;;;;;5.45;2.50;;;31.30;65.00;;;;;;5004212;28;20052;-61
2022/06/23 13:21:33;;;;;;;5.47;2.50;;;31.50;65.40;;;;;;5008273;28;20048;-63
2022/06/23 13:24:12;;;;;;;3.47;2.67;;;31.60;66.70;;;;;;5011473;28;20504;-61
2022/06/23 13:26:49;;;;;;;5.95;2.70;;;31.80;62.80;;;;;;5010269;28;20380;-61
2022/06/23 13:29:39;;;;;;;4.70;2.53;;;31.90;65.70;;;;;;5020722;28;20041;-60
2022/06/23 13:32:17;;;;;;;5.28;2.50;;;31.90;63.20;;;;;;5022811;28;20080;-60
2022/06/23 13:34:50;;;;;;;5.63;2.65;;;32.00;63.00;;;;;;5018299;28;20038;-60
2022/06/23 13:37:23;;;;;;;6.90;2.38;;;32.10;62.70;;;;;;5004905;28;20092;-62
2022/06/23 13:40:16;;;;;;;3.92;2.35;;;32.20;63.10;;;;;;5018451;28;20092;-60
2022/06/23 13:43:09;;;;;;;9.43;2.38;;;32.50;61.10;;;;;;5004138;28;20042;-61
2022/06/23 13:45:46;;;;;;;2.65;2.28;;;32.40;59.00;;;;;;5033565;28;20042;-60
2022/06/23 13:48:39;;;;;;;3.47;2.25;;;32.20;58.30;;;;;;5013663;28;20076;-61
2022/06/23 13:51:17;;;;;;;3.08;2.28;;;32.30;60.50;;;;;;5015922;28;20135;-61
2022/06/23 13:53:50;;;;;;;5.68;2.70;;;32.40;58.70;;;;;;5023861;28;20441;-61
2022/06/23 13:56:29;;;;;;;5.10;2.88;;;32.60;59.20;;;;;;5007194;28;20131;-61